createdAt,value
2016-06-07T00:00:30.538Z,13.87
2016-06-07T00:01:30.541Z,13.87
2016-06-07T00:02:30.528Z,14
2016-06-07T00:03:30.375Z,13.87
2016-06-07T00:04:30.532Z,13.95
2016-06-07T00:05:30.552Z,13.92
2016-06-07T00:06:30.523Z,13.91
2016-06-07T00:07:30.526Z,13.89
2016-06-07T00:08:30.528Z,13.91
2016-06-07T00:09:30.515Z,13.85
2016-06-07T00:10:30.518Z,13.85
2016-06-07T00:11:30.521Z,13.73
2016-06-07T00:12:31.305Z,13.73
2016-06-07T00:13:30.901Z,13.75
2016-06-07T00:14:31.497Z,13.7
2016-06-07T00:15:31.922Z,13.7
2016-06-07T00:16:30.971Z,13.73
2016-06-07T00:17:30.506Z,13.66
2016-06-07T00:18:30.945Z,13.63
2016-06-07T00:19:44.683Z,13.64
2016-06-07T00:20:31.826Z,13.55
2016-06-07T00:21:32.079Z,13.48
2016-06-07T00:22:31.754Z,13.59
2016-06-07T00:23:30.584Z,13.54
2016-06-07T00:24:31.774Z,13.62
2016-06-07T00:25:31.761Z,13.6
2016-06-07T00:26:31.264Z,13.6
2016-06-07T00:27:44.985Z,13.54
2016-06-07T00:28:30.676Z,13.63
2016-06-07T00:29:44.773Z,13.62
2016-06-07T00:30:30.509Z,13.62
2016-06-07T00:31:30.465Z,13.62
2016-06-07T00:32:30.468Z,13.52
2016-06-07T00:33:30.455Z,13.59
2016-06-07T00:34:30.458Z,13.55
2016-06-07T00:35:30.476Z,13.6
2016-06-07T00:36:30.463Z,13.54
2016-06-07T00:37:30.449Z,13.59
2016-06-07T00:38:30.453Z,13.48
2016-06-07T00:39:30.440Z,13.52
2016-06-07T00:40:30.442Z,13.51
2016-06-07T00:41:30.429Z,13.39
2016-06-07T00:42:30.432Z,13.44
2016-06-07T00:43:30.435Z,13.36
2016-06-07T00:44:30.437Z,13.41
2016-06-07T00:45:30.424Z,13.42
2016-06-07T00:46:30.443Z,13.44
2016-06-07T00:47:30.430Z,13.3
2016-06-07T00:48:30.417Z,13.32
2016-06-07T00:49:30.420Z,13.28
2016-06-07T00:50:31.922Z,13.26
2016-06-07T00:51:30.644Z,13.28
2016-06-07T00:52:30.412Z,13.3
2016-06-07T00:53:30.415Z,13.28
2016-06-07T00:54:30.417Z,13.19
2016-06-07T00:55:30.405Z,13.26
2016-06-07T00:56:30.408Z,13.26
2016-06-07T00:57:30.395Z,13.22
2016-06-07T00:58:30.397Z,13.19
2016-06-07T00:59:30.384Z,13.2
2016-06-07T01:00:30.387Z,13.19
2016-06-07T01:01:30.389Z,13.22
2016-06-07T01:02:30.392Z,13.25
2016-06-07T01:03:30.395Z,13.25
2016-06-07T01:04:30.382Z,13.19
2016-06-07T01:05:30.369Z,13.2
2016-06-07T01:06:30.293Z,13.23
2016-06-07T01:07:30.374Z,13.22
2016-06-07T01:08:30.221Z,13.17
2016-06-07T01:09:30.364Z,13.23
2016-06-07T01:10:30.367Z,13.14
2016-06-07T01:11:30.354Z,13.15
2016-06-07T01:12:30.356Z,13.12
2016-06-07T01:13:30.359Z,13.11
2016-06-07T01:14:30.346Z,12.96
2016-06-07T01:15:30.349Z,13
2016-06-07T01:16:30.351Z,13.04
2016-06-07T01:17:30.182Z,13.08
2016-06-07T01:18:30.185Z,13.03
2016-06-07T01:19:30.328Z,12.97
2016-06-07T01:20:30.331Z,12.9
2016-06-07T01:21:30.709Z,12.96
2016-06-07T01:22:30.181Z,12.86
2016-06-07T01:23:30.323Z,12.82
2016-06-07T01:24:30.326Z,12.86
2016-06-07T01:25:30.328Z,12.79
2016-06-07T01:26:30.317Z,12.82
2016-06-07T01:27:30.319Z,12.77
2016-06-07T01:28:30.306Z,12.72
2016-06-07T01:29:30.308Z,12.71
2016-06-07T01:30:30.295Z,12.75
2016-06-07T01:31:30.627Z,12.77
2016-06-07T01:32:31.067Z,12.74
2016-06-07T01:33:30.553Z,12.78
2016-06-07T01:34:31.697Z,12.72
2016-06-07T01:35:30.340Z,12.74
2016-06-07T01:36:44.781Z,12.71
2016-06-07T01:37:44.455Z,12.71
2016-06-07T01:38:30.380Z,12.71
2016-06-07T01:39:44.460Z,12.65
2016-06-07T01:40:30.494Z,12.65
2016-06-07T01:41:31.060Z,12.56
2016-06-07T01:42:30.266Z,12.62
2016-06-07T01:43:32.034Z,12.6
2016-06-07T01:44:31.520Z,12.64
2016-06-07T01:45:30.414Z,12.53
2016-06-07T01:46:31.557Z,12.57
2016-06-07T01:47:30.247Z,12.5
2016-06-07T01:48:30.269Z,12.49
2016-06-07T01:49:30.615Z,12.42
2016-06-07T01:50:30.632Z,12.47
2016-06-07T01:51:30.025Z,12.42
2016-06-07T01:52:30.308Z,12.45
2016-06-07T01:53:30.308Z,12.45
2016-06-07T01:54:30.316Z,12.47
2016-06-07T01:55:30.309Z,12.46
2016-06-07T01:56:30.162Z,12.42
2016-06-07T01:57:30.340Z,12.45
2016-06-07T01:58:30.317Z,12.45
2016-06-07T01:59:30.321Z,12.45
2016-06-07T02:00:30.310Z,12.45
2016-06-07T02:01:30.315Z,12.41
2016-06-07T02:02:30.320Z,12.37
2016-06-07T02:03:30.308Z,12.37
2016-06-07T02:04:30.312Z,12.34
2016-06-07T02:05:30.316Z,12.28
2016-06-07T02:06:30.163Z,12.35
2016-06-07T02:07:30.306Z,12.37
2016-06-07T02:08:30.295Z,12.27
2016-06-07T02:09:30.313Z,12.28
2016-06-07T02:10:30.301Z,12.28
2016-06-07T02:11:30.287Z,12.23
2016-06-07T02:12:30.291Z,12.21
2016-06-07T02:13:30.310Z,12.28
2016-06-07T02:14:30.281Z,12.31
2016-06-07T02:15:30.283Z,12.28
2016-06-07T02:16:30.271Z,12.29
2016-06-07T02:17:30.117Z,12.24
2016-06-07T02:18:30.261Z,12.31
2016-06-07T02:19:30.279Z,12.2
2016-06-07T02:20:30.266Z,12.24
2016-06-07T02:21:30.362Z,12.16
2016-06-07T02:22:30.256Z,12.17
2016-06-07T02:23:30.259Z,12.21
2016-06-07T02:24:30.246Z,12.13
2016-06-07T02:25:30.092Z,12.21
2016-06-07T02:26:30.235Z,12.14
2016-06-07T02:27:30.238Z,12.09
2016-06-07T02:28:30.240Z,12.1
2016-06-07T02:29:30.243Z,12.1
2016-06-07T02:30:30.230Z,12.02
2016-06-07T02:31:30.233Z,12.12
2016-06-07T02:32:30.220Z,11.98
2016-06-07T02:33:30.223Z,11.98
2016-06-07T02:34:30.210Z,12.07
2016-06-07T02:35:30.212Z,12.02
2016-06-07T02:36:30.059Z,12.02
2016-06-07T02:37:30.217Z,12.01
2016-06-07T02:38:30.205Z,12.02
2016-06-07T02:39:30.192Z,12.07
2016-06-07T02:40:30.195Z,12.13
2016-06-07T02:41:30.197Z,12.07
2016-06-07T02:42:30.185Z,12.01
2016-06-07T02:43:30.031Z,11.95
2016-06-07T02:44:30.174Z,12.04
2016-06-07T02:45:30.036Z,11.96
2016-06-07T02:46:30.180Z,11.99
2016-06-07T02:47:30.166Z,11.98
2016-06-07T02:48:30.169Z,12.05
2016-06-07T02:49:30.953Z,12.07
2016-06-07T02:50:31.738Z,12.01
2016-06-07T02:51:31.741Z,11.99
2016-06-07T02:52:31.570Z,11.95
2016-06-07T02:53:30.152Z,12.04
2016-06-07T02:54:31.435Z,12.04
2016-06-07T02:55:58.723Z,12.02
2016-06-07T02:56:30.363Z,12.02
2016-06-07T02:57:44.709Z,12.04
2016-06-07T02:58:30.228Z,11.95
2016-06-07T02:59:31.590Z,11.99
2016-06-07T03:00:31.593Z,12.01
2016-06-07T03:01:30.845Z,12.05
2016-06-07T03:02:30.114Z,12.04
2016-06-07T03:03:31.944Z,12.07
2016-06-07T03:04:45.275Z,12.13
2016-06-07T03:05:44.278Z,12.04
2016-06-07T03:06:30.514Z,12.1
2016-06-07T03:07:30.095Z,12.13
2016-06-07T03:08:30.098Z,12.07
2016-06-07T03:09:30.086Z,12.05
2016-06-07T03:10:30.088Z,11.99
2016-06-07T03:11:30.091Z,11.96
2016-06-07T03:12:29.921Z,12.07
2016-06-07T03:13:30.080Z,12.05
2016-06-07T03:14:30.067Z,11.95
2016-06-07T03:15:30.069Z,12.12
2016-06-07T03:16:30.072Z,12.1
2016-06-07T03:17:30.060Z,12.1
2016-06-07T03:18:30.063Z,12.05
2016-06-07T03:19:30.050Z,12.09
2016-06-07T03:20:30.052Z,12.05
2016-06-07T03:21:30.758Z,12.07
2016-06-07T03:22:29.918Z,12.01
2016-06-07T03:23:30.045Z,12.19
2016-06-07T03:24:30.032Z,12.2
2016-06-07T03:25:30.035Z,12.32
2016-06-07T03:26:30.038Z,12.47
2016-06-07T03:27:30.024Z,12.52
2016-06-07T03:28:30.027Z,12.74
2016-06-07T03:29:30.029Z,12.79
2016-06-07T03:30:30.017Z,13.05
2016-06-07T03:31:30.020Z,13.17
2016-06-07T03:32:30.023Z,13.23
2016-06-07T03:33:30.009Z,13.46
2016-06-07T03:34:30.012Z,13.51
2016-06-07T03:35:29.998Z,13.75
2016-06-07T03:36:30.517Z,13.79
2016-06-07T03:37:30.004Z,14.02
2016-06-07T03:38:30.006Z,14.21
2016-06-07T03:39:29.994Z,14.39
2016-06-07T03:40:29.997Z,14.65
2016-06-07T03:41:30.015Z,14.84
2016-06-07T03:42:30.002Z,15.2
2016-06-07T03:43:29.989Z,15.43
2016-06-07T03:44:29.992Z,15.59
2016-06-07T03:45:29.979Z,15.83
2016-06-07T03:46:29.982Z,16.02
2016-06-07T03:47:29.985Z,16.17
2016-06-07T03:48:30.002Z,16.23
2016-06-07T03:49:29.990Z,16.3
2016-06-07T03:50:30.008Z,16.35
2016-06-07T03:51:30.511Z,16.49
2016-06-07T03:52:29.982Z,16.63
2016-06-07T03:53:29.985Z,16.81
2016-06-07T03:54:30.004Z,16.98
2016-06-07T03:55:29.990Z,17.16
2016-06-07T03:56:29.993Z,17.48
2016-06-07T03:57:29.979Z,17.81
2016-06-07T03:58:29.982Z,17.99
2016-06-07T03:59:30.001Z,18.25
2016-06-07T04:00:29.988Z,18.44
2016-06-07T04:01:29.991Z,18.44
2016-06-07T04:02:29.993Z,18.42
2016-06-07T04:03:29.996Z,18.44
2016-06-07T04:04:30.014Z,18.26
2016-06-07T04:05:30.001Z,18.35
2016-06-07T04:06:30.067Z,18.52
2016-06-07T04:07:30.023Z,18.73
2016-06-07T04:08:30.009Z,18.85
2016-06-07T04:09:31.434Z,18.67
2016-06-07T04:10:30.015Z,18.88
2016-06-07T04:11:31.408Z,19
2016-06-07T04:12:30.708Z,19.16
2016-06-07T04:13:30.961Z,19.32
2016-06-07T04:14:30.026Z,19.33
2016-06-07T04:15:30.028Z,19.58
2016-06-07T04:16:30.218Z,19.69
2016-06-07T04:18:30.928Z,20.06
2016-06-07T04:19:30.430Z,20.08
2016-06-07T04:20:31.416Z,20.14
2016-06-07T04:21:31.451Z,20.31
2016-06-07T04:22:30.516Z,20.52
2016-06-07T04:23:30.066Z,20.66
2016-06-07T04:24:30.772Z,20.73
2016-06-07T04:25:30.212Z,20.95
2016-06-07T04:26:30.120Z,21.04
2016-06-07T04:27:30.077Z,21.24
2016-06-07T04:28:30.079Z,21.35
2016-06-07T04:29:30.098Z,21.59
2016-06-07T04:30:30.084Z,21.83
2016-06-07T04:31:30.104Z,22.06
2016-06-07T04:32:30.106Z,22.36
2016-06-07T04:33:30.108Z,22.75
2016-06-07T04:34:30.127Z,23.05
2016-06-07T04:35:30.113Z,23.23
2016-06-07T04:36:30.132Z,23.48
2016-06-07T04:37:29.822Z,23.78
2016-06-07T04:38:30.137Z,24.09
2016-06-07T04:39:30.139Z,24.45
2016-06-07T04:40:30.159Z,24.76
2016-06-07T04:41:30.161Z,24.8
2016-06-07T04:42:30.195Z,24.73
2016-06-07T04:43:30.181Z,24.68
2016-06-07T04:44:30.185Z,24.53
2016-06-07T04:45:30.186Z,24.61
2016-06-07T04:46:30.205Z,24.68
2016-06-07T04:47:30.208Z,24.76
2016-06-07T04:48:30.055Z,24.9
2016-06-07T04:49:30.230Z,25.24
2016-06-07T04:50:30.232Z,25.42
2016-06-07T04:51:30.250Z,25.65
2016-06-07T04:52:31.252Z,25.7
2016-06-07T04:53:30.255Z,25.65
2016-06-07T04:54:30.274Z,25.73
2016-06-07T04:55:30.277Z,25.85
2016-06-07T04:56:30.295Z,26.18
2016-06-07T04:57:30.298Z,26.54
2016-06-07T04:58:30.316Z,26.97
2016-06-07T04:59:30.335Z,27.27
2016-06-07T05:00:30.181Z,27.41
2016-06-07T05:01:30.340Z,27.67
2016-06-07T05:02:30.342Z,27.72
2016-06-07T05:03:30.360Z,27.81
2016-06-07T05:04:30.363Z,27.92
2016-06-07T05:05:30.382Z,28
2016-06-07T05:06:30.385Z,28.04
2016-06-07T05:07:30.840Z,28.03
2016-06-07T05:08:30.406Z,28.06
2016-06-07T05:09:30.423Z,28.18
2016-06-07T05:10:30.426Z,28.48
2016-06-07T05:11:30.445Z,28.54
2016-06-07T05:12:30.447Z,28.49
2016-06-07T05:13:30.466Z,28.66
2016-06-07T05:14:30.484Z,28.89
2016-06-07T05:15:30.487Z,29.18
2016-06-07T05:16:30.489Z,29.42
2016-06-07T05:17:30.507Z,29.71
2016-06-07T05:18:30.526Z,29.8
2016-06-07T05:19:30.544Z,29.94
2016-06-07T05:20:30.547Z,30.04
2016-06-07T05:21:30.565Z,30.02
2016-06-07T05:22:30.912Z,30.27
2016-06-07T05:23:30.586Z,30.47
2016-06-07T05:24:30.589Z,30.42
2016-06-07T05:25:30.607Z,30.39
2016-06-07T05:26:30.610Z,30.61
2016-06-07T05:27:31.613Z,30.84
2016-06-07T05:28:31.632Z,30.99
2016-06-07T05:29:30.977Z,31.14
2016-06-07T05:30:32.042Z,31.19
2016-06-07T05:31:30.670Z,31.26
2016-06-07T05:32:30.688Z,31.44
2016-06-07T05:34:30.866Z,31.73
2016-06-07T05:35:30.729Z,31.89
2016-06-07T05:36:32.153Z,32.03
2016-06-07T05:37:31.280Z,32.07
2016-06-07T05:38:31.221Z,31.86
2016-06-07T05:39:31.661Z,31.69
2016-06-07T05:40:45.085Z,31.73
2016-06-07T05:41:31.478Z,31.63
2016-06-07T05:42:31.669Z,31.56
2016-06-07T05:43:30.890Z,31.51
2016-06-07T05:44:30.846Z,31.51
2016-06-07T05:45:31.161Z,31.5
2016-06-07T05:46:30.883Z,31.46
2016-06-07T05:47:30.900Z,31.43
2016-06-07T05:48:30.903Z,31.47
2016-06-07T05:49:30.781Z,31.46
2016-06-07T05:50:30.940Z,31.36
2016-06-07T05:51:31.661Z,31.31
2016-06-07T05:52:30.992Z,31.2
2016-06-07T05:53:30.980Z,31.21
2016-06-07T05:54:30.998Z,31.19
2016-06-07T05:55:31.016Z,31.2
2016-06-07T05:56:31.019Z,31.28
2016-06-07T05:57:30.881Z,31.25
2016-06-07T05:58:31.041Z,31.17
2016-06-07T05:59:31.058Z,31.16
2016-06-07T06:00:31.076Z,31.19
2016-06-07T06:01:30.924Z,31.25
2016-06-07T06:02:31.098Z,31.19
2016-06-07T06:03:31.116Z,31.16
2016-06-07T06:04:31.134Z,31.13
2016-06-07T06:05:31.152Z,31.17
2016-06-07T06:06:31.155Z,31.2
2016-06-07T06:07:31.737Z,31.32
2016-06-07T06:08:31.489Z,31.44
2016-06-07T06:09:31.195Z,31.56
2016-06-07T06:10:31.198Z,31.8
2016-06-07T06:11:31.215Z,31.88
2016-06-07T06:12:31.234Z,31.86
2016-06-07T06:13:31.237Z,32.03
2016-06-07T06:14:31.255Z,32.19
2016-06-07T06:15:31.273Z,32.37
2016-06-07T06:16:31.275Z,32.59
2016-06-07T06:17:31.310Z,32.67
2016-06-07T06:18:31.312Z,32.78
2016-06-07T06:19:31.331Z,32.99
2016-06-07T06:20:31.333Z,33.12
2016-06-07T06:21:31.352Z,33.32
2016-06-07T06:22:31.245Z,33.57
2016-06-07T06:23:32.030Z,33.66
2016-06-07T06:24:31.422Z,33.9
2016-06-07T06:25:31.269Z,34.06
2016-06-07T06:26:31.444Z,34.16
2016-06-07T06:27:31.461Z,34.34
2016-06-07T06:28:31.480Z,34.61
2016-06-07T06:29:31.498Z,34.82
2016-06-07T06:30:31.361Z,35.03
2016-06-07T06:31:31.379Z,35.15
2016-06-07T06:32:31.553Z,35.23
2016-06-07T06:33:31.557Z,35.45
2016-06-07T06:34:31.590Z,35.47
2016-06-07T06:35:31.592Z,35.66
2016-06-07T06:36:31.610Z,35.68
2016-06-07T06:37:32.754Z,35.6
2016-06-07T06:38:31.663Z,35.68
2016-06-07T06:39:31.525Z,35.59
2016-06-07T06:40:31.700Z,35.68
2016-06-07T06:41:31.717Z,35.89
2016-06-07T06:42:31.737Z,36.03
2016-06-07T06:43:31.755Z,36.13
2016-06-07T06:44:31.773Z,36.37
2016-06-07T06:45:33.197Z,36.64
2016-06-07T06:46:33.138Z,36.73
2016-06-07T06:47:31.844Z,36.93
2016-06-07T06:48:34.158Z,36.94
2016-06-07T06:49:34.787Z,37
2016-06-07T06:50:46.086Z,37.02
2016-06-07T06:51:32.792Z,37.1
2016-06-07T06:52:31.950Z,37.03
2016-06-07T06:53:31.970Z,36.94
2016-06-07T06:54:31.988Z,36.69
2016-06-07T06:55:32.005Z,36.54
2016-06-07T06:56:32.025Z,36.51
2016-06-07T06:57:33.558Z,36.71
2016-06-07T06:58:46.249Z,36.91
2016-06-07T07:01:32.288Z,37.49
2016-06-07T07:02:32.369Z,37.6
2016-06-07T07:03:32.183Z,37.7
2016-06-07T07:04:32.202Z,37.82
2016-06-07T07:05:32.377Z,38.01
2016-06-07T07:06:32.254Z,38.06
2016-06-07T07:07:32.319Z,38.15
2016-06-07T07:08:32.290Z,38.23
2016-06-07T07:09:32.324Z,38.32
2016-06-07T07:10:32.343Z,38.41
2016-06-07T07:11:32.361Z,38.46
2016-06-07T07:12:32.379Z,38.54
2016-06-07T07:13:32.242Z,38.74
2016-06-07T07:14:32.432Z,38.76
2016-06-07T07:15:32.450Z,38.93
2016-06-07T07:16:32.468Z,38.99
2016-06-07T07:17:32.487Z,38.96
2016-06-07T07:18:32.520Z,39.04
2016-06-07T07:19:32.539Z,39.26
2016-06-07T07:20:32.572Z,39.44
2016-06-07T07:21:32.592Z,39.33
2016-06-07T07:22:32.703Z,39.41
2016-06-07T07:23:32.627Z,39.55
2016-06-07T07:24:32.662Z,39.43
2016-06-07T07:25:32.680Z,39.47
2016-06-07T07:26:32.699Z,39.38
2016-06-07T07:27:32.716Z,39.35
2016-06-07T07:28:32.750Z,39.26
2016-06-07T07:29:32.769Z,39.22
2016-06-07T07:30:32.803Z,39.33
2016-06-07T07:31:32.821Z,39.25
2016-06-07T07:32:32.840Z,39.26
2016-06-07T07:33:32.858Z,39.29
2016-06-07T07:34:32.892Z,39.22
2016-06-07T07:35:32.754Z,39.33
2016-06-07T07:36:32.929Z,39.29
2016-06-07T07:37:33.338Z,39.45
2016-06-07T07:38:32.981Z,39.57
2016-06-07T07:39:33.014Z,39.67
2016-06-07T07:40:33.032Z,39.67
2016-06-07T07:41:33.052Z,39.79
2016-06-07T07:42:33.070Z,39.64
2016-06-07T07:43:33.104Z,39.66
2016-06-07T07:44:33.122Z,39.7
2016-06-07T07:45:33.156Z,39.63
2016-06-07T07:46:33.173Z,39.63
2016-06-07T07:47:33.052Z,39.7
2016-06-07T07:48:33.226Z,39.78
2016-06-07T07:49:33.244Z,39.91
2016-06-07T07:50:33.278Z,40.12
2016-06-07T07:51:33.297Z,40.13
2016-06-07T07:52:34.487Z,40.2
2016-06-07T07:53:33.349Z,40.23
2016-06-07T07:54:33.367Z,40.15
2016-06-07T07:55:33.230Z,40.23
2016-06-07T07:56:33.435Z,40.12
2016-06-07T07:57:33.438Z,40.25
2016-06-07T07:58:33.456Z,40.19
2016-06-07T07:59:33.491Z,40.26
2016-06-07T08:00:33.540Z,40.41
2016-06-07T08:01:33.543Z,40.61
2016-06-07T08:02:33.577Z,40.55
2016-06-07T08:03:33.579Z,40.41
2016-06-07T08:04:33.613Z,40.31
2016-06-07T08:05:34.693Z,40.27
2016-06-07T08:06:34.821Z,40.26
2016-06-07T08:07:34.591Z,40.31
2016-06-07T08:08:33.780Z,40.45
2016-06-07T08:09:35.424Z,40.43
2016-06-07T08:10:48.395Z,40.27
2016-06-07T08:11:34.429Z,39.78
2016-06-07T08:12:33.807Z,39.47
2016-06-07T08:13:35.387Z,39.29
2016-06-07T08:14:34.421Z,39.35
2016-06-07T08:15:33.861Z,39.59
2016-06-07T08:16:34.098Z,39.63
2016-06-07T08:17:33.961Z,39.75
2016-06-07T08:18:33.948Z,39.81
2016-06-07T08:19:34.638Z,39.54
2016-06-07T08:20:34.437Z,39.04
2016-06-07T08:21:34.424Z,38.66
2016-06-07T08:22:33.927Z,38.65
2016-06-07T08:23:34.071Z,38.76
2016-06-07T08:24:34.089Z,38.98
2016-06-07T08:25:34.122Z,39.07
2016-06-07T08:26:34.141Z,39.26
2016-06-07T08:27:34.159Z,39.44
2016-06-07T08:28:34.177Z,39.45
2016-06-07T08:29:34.228Z,39.38
2016-06-07T08:30:34.246Z,38.83
2016-06-07T08:31:34.264Z,38.34
2016-06-07T08:32:34.282Z,38.09
2016-06-07T08:33:34.300Z,38.07
2016-06-07T08:34:34.334Z,37.98
2016-06-07T08:35:34.352Z,37.79
2016-06-07T08:36:34.372Z,37.81
2016-06-07T08:37:34.265Z,37.75
2016-06-07T08:38:35.001Z,37.57
2016-06-07T08:39:34.441Z,36.8
2016-06-07T08:40:34.475Z,36.25
2016-06-07T08:41:34.510Z,35.92
2016-06-07T08:42:34.512Z,35.7
2016-06-07T08:43:34.531Z,35.63
2016-06-07T08:44:34.548Z,35.63
2016-06-07T08:45:34.582Z,35.37
2016-06-07T08:46:34.367Z,35.18
2016-06-07T08:47:34.620Z,34.61
2016-06-07T08:48:34.637Z,34.5
2016-06-07T08:49:34.656Z,34.32
2016-06-07T08:50:34.689Z,34.05
2016-06-07T08:51:34.693Z,33.76
2016-06-07T08:52:34.976Z,33
2016-06-07T08:53:35.511Z,32.32
2016-06-07T08:54:34.778Z,31.81
2016-06-07T08:55:34.781Z,31.72
2016-06-07T08:56:34.800Z,31.43
2016-06-07T08:57:34.819Z,31.19
2016-06-07T08:58:34.836Z,31.02
2016-06-07T08:59:53.308Z,30.65
2016-06-07T09:00:34.873Z,30.34
2016-06-07T09:01:34.750Z,29.89
2016-06-07T09:02:34.910Z,29.57
2016-06-07T09:03:34.928Z,29.26
2016-06-07T09:04:34.962Z,29.05
2016-06-07T09:05:34.965Z,28.92
2016-06-07T09:06:34.827Z,28.68
2016-06-07T09:07:35.657Z,28.55
2016-06-07T09:08:35.285Z,28.4
2016-06-07T09:09:35.007Z,28.12
2016-06-07T09:10:35.024Z,27.94
2016-06-07T09:11:34.888Z,27.63
2016-06-07T09:12:34.905Z,27.44
2016-06-07T09:13:35.065Z,27.1
2016-06-07T09:14:35.082Z,27.02
2016-06-07T09:15:35.085Z,26.81
2016-06-07T09:16:35.120Z,26.73
2016-06-07T09:17:35.106Z,26.58
2016-06-07T09:18:35.125Z,26.51
2016-06-07T09:19:35.143Z,26.35
2016-06-07T09:20:35.145Z,26.26
2016-06-07T09:21:35.180Z,26.1
2016-06-07T09:22:35.729Z,26.01
2016-06-07T09:23:37.091Z,25.7
2016-06-07T09:24:36.531Z,25.47
2016-06-07T09:25:35.440Z,25.38
2016-06-07T09:26:35.959Z,25.09
2016-06-07T09:27:50.556Z,24.9
2016-06-07T09:28:35.636Z,24.85
2016-06-07T09:29:35.232Z,24.77
2016-06-07T09:30:35.297Z,24.62
2016-06-07T09:31:35.301Z,24.49
2016-06-07T09:32:35.944Z,24.5
2016-06-07T09:33:36.931Z,24.52
2016-06-07T09:34:35.278Z,24.52
2016-06-07T09:35:38.874Z,24.53
2016-06-07T09:36:49.469Z,24.53
2016-06-07T09:37:36.660Z,24.5
2016-06-07T09:38:35.272Z,24.53
2016-06-07T09:39:35.321Z,24.47
2016-06-07T09:40:35.309Z,24.55
2016-06-07T09:41:35.421Z,24.55
2016-06-07T09:42:35.330Z,24.53
2016-06-07T09:43:35.348Z,24.52
2016-06-07T09:44:35.351Z,24.52
2016-06-07T09:45:35.353Z,24.47
2016-06-07T09:46:35.201Z,24.43
2016-06-07T09:47:35.359Z,24.52
2016-06-07T09:48:35.377Z,24.55
2016-06-07T09:49:35.380Z,24.55
2016-06-07T09:50:35.382Z,24.57
2016-06-07T09:51:35.385Z,24.43
2016-06-07T09:52:35.904Z,24.42
2016-06-07T09:53:35.406Z,24.4
2016-06-07T09:54:35.409Z,24.42
2016-06-07T09:55:35.412Z,24.32
2016-06-07T09:56:35.430Z,24.4
2016-06-07T09:57:35.448Z,24.34
2016-06-07T09:58:35.279Z,24.4
2016-06-07T09:59:35.438Z,24.42
2016-06-07T10:00:35.456Z,24.3
2016-06-07T10:01:35.459Z,24.43
2016-06-07T10:02:35.461Z,24.42
2016-06-07T10:03:35.464Z,24.52
2016-06-07T10:04:35.483Z,24.42
2016-06-07T10:05:35.486Z,24.32
2016-06-07T10:06:35.488Z,24.34
2016-06-07T10:07:35.335Z,24.35
2016-06-07T10:08:36.275Z,24.37
2016-06-07T10:09:35.513Z,24.43
2016-06-07T10:10:35.515Z,24.49
2016-06-07T10:11:35.517Z,24.5
2016-06-07T10:12:35.520Z,24.65
2016-06-07T10:13:35.382Z,24.61
2016-06-07T10:14:35.541Z,24.68
2016-06-07T10:15:35.544Z,24.77
2016-06-07T10:16:35.546Z,24.69
2016-06-07T10:17:35.565Z,24.77
2016-06-07T10:18:42.927Z,24.76
2016-06-07T10:19:35.568Z,24.73
2016-06-07T10:20:35.572Z,24.68
2016-06-07T10:21:35.574Z,24.69
2016-06-07T10:22:35.591Z,24.76
2016-06-07T10:23:35.658Z,24.71
2016-06-07T10:24:35.613Z,24.76
2016-06-07T10:25:35.599Z,24.73
2016-06-07T10:26:35.619Z,24.71
2016-06-07T10:27:35.621Z,24.69
2016-06-07T10:28:35.640Z,24.73
2016-06-07T10:29:35.626Z,24.8
2016-06-07T10:30:35.488Z,24.85
2016-06-07T10:31:35.647Z,24.81
2016-06-07T10:32:35.651Z,24.78
2016-06-07T10:33:35.653Z,24.81
2016-06-07T10:34:35.671Z,24.78
2016-06-07T10:35:35.674Z,24.69
2016-06-07T10:36:35.676Z,24.69
2016-06-07T10:37:35.695Z,24.67
2016-06-07T10:38:35.900Z,24.58
2016-06-07T10:39:35.701Z,24.53
2016-06-07T10:40:35.703Z,24.45
2016-06-07T10:41:37.893Z,24.35
2016-06-07T10:42:36.756Z,24.37
2016-06-07T10:43:35.711Z,24.37
2016-06-07T10:44:36.417Z,24.24
2016-06-07T10:45:36.076Z,24.28
2016-06-07T10:47:36.972Z,24.35
2016-06-07T10:48:36.443Z,24.34
2016-06-07T10:49:35.790Z,24.34
2016-06-07T10:50:35.777Z,24.3
2016-06-07T10:51:36.499Z,24.32
2016-06-07T10:52:35.922Z,24.4
2016-06-07T10:53:37.316Z,24.4
2016-06-07T10:54:36.474Z,24.35
2016-06-07T10:55:36.693Z,24.45
2016-06-07T10:56:36.352Z,24.37
2016-06-07T10:57:36.307Z,24.3
2016-06-07T10:58:35.871Z,24.45
2016-06-07T10:59:35.936Z,24.46
2016-06-07T11:00:35.899Z,24.52
2016-06-07T11:01:36.110Z,24.61
2016-06-07T11:02:35.914Z,24.62
2016-06-07T11:03:35.767Z,24.68
2016-06-07T11:04:35.947Z,24.81
2016-06-07T11:05:35.952Z,24.73
2016-06-07T11:06:35.956Z,24.76
2016-06-07T11:07:35.961Z,24.83
2016-06-07T11:08:35.982Z,24.81
2016-06-07T11:09:35.987Z,24.84
2016-06-07T11:10:35.990Z,24.96
2016-06-07T11:11:35.993Z,24.91
2016-06-07T11:12:36.012Z,24.85
2016-06-07T11:13:36.001Z,24.78
2016-06-07T11:14:36.018Z,24.69
2016-06-07T11:15:36.022Z,24.73
2016-06-07T11:16:36.025Z,24.68
2016-06-07T11:17:36.060Z,24.69
2016-06-07T11:18:36.047Z,24.73
2016-06-07T11:19:36.050Z,24.71
2016-06-07T11:20:36.069Z,24.8
2016-06-07T11:21:36.056Z,24.73
2016-06-07T11:22:36.058Z,24.85
2016-06-07T11:23:37.311Z,24.85
2016-06-07T11:24:35.922Z,24.87
2016-06-07T11:25:36.097Z,24.9
2016-06-07T11:26:36.100Z,24.93
2016-06-07T11:27:36.102Z,24.91
2016-06-07T11:28:36.106Z,25.02
2016-06-07T11:29:36.108Z,24.91
2016-06-07T11:30:36.111Z,24.95
2016-06-07T11:31:36.113Z,24.99
2016-06-07T11:32:36.133Z,24.95
2016-06-07T11:33:35.979Z,25.03
2016-06-07T11:34:36.138Z,24.91
2016-06-07T11:35:36.140Z,25.02
2016-06-07T11:36:36.143Z,24.98
2016-06-07T11:37:36.145Z,25.03
2016-06-07T11:38:36.163Z,25.02
2016-06-07T11:39:36.166Z,25.05
2016-06-07T11:40:36.168Z,25.05
2016-06-07T11:41:36.187Z,25.06
2016-06-07T11:42:36.034Z,25.06
2016-06-07T11:43:36.193Z,25.14
2016-06-07T11:44:36.196Z,25.15
2016-06-07T11:45:36.198Z,25.13
2016-06-07T11:46:36.217Z,25.13
2016-06-07T11:47:36.234Z,25.13
2016-06-07T11:48:36.222Z,25.15
2016-06-07T11:49:36.240Z,25.14
2016-06-07T11:50:36.243Z,25.08
2016-06-07T11:51:36.231Z,25.09
2016-06-07T11:52:36.248Z,24.95
2016-06-07T11:53:36.861Z,24.93
2016-06-07T11:54:36.253Z,24.99
2016-06-07T11:55:36.256Z,25.02
2016-06-07T11:56:36.274Z,25.02
2016-06-07T11:57:36.278Z,25.06
2016-06-07T11:58:36.296Z,25.09
2016-06-07T11:59:36.283Z,25.09
2016-06-07T12:00:37.083Z,25.06
2016-06-07T12:01:36.304Z,25.05
2016-06-07T12:02:36.307Z,25
2016-06-07T12:03:50.499Z,25.03
2016-06-07T12:04:36.343Z,24.95
2016-06-07T12:05:36.986Z,24.95
2016-06-07T12:06:36.849Z,25
2016-06-07T12:07:36.383Z,25.09
2016-06-07T12:08:36.448Z,25.09
2016-06-07T12:09:37.716Z,25.14
2016-06-07T12:10:36.406Z,25.21
2016-06-07T12:11:37.440Z,25.25
2016-06-07T12:12:37.801Z,25.27
2016-06-07T12:13:37.101Z,25.28
2016-06-07T12:14:36.385Z,25.36
2016-06-07T12:15:36.982Z,25.39
2016-06-07T12:16:37.641Z,25.33
2016-06-07T12:17:37.237Z,25.35
2016-06-07T12:18:36.412Z,25.36
2016-06-07T12:19:36.556Z,25.39
2016-06-07T12:20:36.464Z,25.5
2016-06-07T12:21:36.420Z,25.46
2016-06-07T12:22:36.423Z,25.47
2016-06-07T12:23:36.614Z,25.52
2016-06-07T12:24:36.428Z,25.62
2016-06-07T12:25:36.447Z,25.6
2016-06-07T12:26:36.293Z,25.61
2016-06-07T12:27:36.452Z,25.62
2016-06-07T12:28:36.470Z,25.7
2016-06-07T12:29:36.472Z,25.65
2016-06-07T12:30:36.475Z,25.61
2016-06-07T12:31:36.478Z,25.61
2016-06-07T12:32:36.497Z,25.67
2016-06-07T12:33:36.483Z,25.64
2016-06-07T12:34:36.518Z,25.62
2016-06-07T12:35:36.504Z,25.58
2016-06-07T12:36:36.523Z,25.62
2016-06-07T12:37:36.526Z,25.61
2016-06-07T12:38:37.293Z,25.61
2016-06-07T12:39:37.421Z,25.62
2016-06-07T12:40:36.549Z,25.65
2016-06-07T12:41:36.552Z,25.58
2016-06-07T12:42:36.555Z,25.64
2016-06-07T12:43:36.557Z,25.55
2016-06-07T12:44:36.560Z,25.61
2016-06-07T12:45:36.562Z,25.58
2016-06-07T12:46:36.581Z,25.62
2016-06-07T12:47:36.428Z,25.65
2016-06-07T12:48:36.587Z,25.61
2016-06-07T12:49:36.605Z,25.61
2016-06-07T12:50:36.451Z,25.62
2016-06-07T12:51:36.610Z,25.64
2016-06-07T12:52:36.613Z,25.67
2016-06-07T12:53:37.740Z,25.69
2016-06-07T12:54:37.353Z,25.79
2016-06-07T12:55:36.636Z,25.65
2016-06-07T12:56:36.639Z,25.65
2016-06-07T12:57:36.642Z,25.58
2016-06-07T12:58:36.661Z,25.62
2016-06-07T12:59:36.663Z,25.61
2016-06-07T13:00:36.666Z,25.6